sensor_id;sensor_type;location;lat;lon;timestamp;P1;durP1;ratioP1;P2;durP2;ratioP2
39196;SDS011;42889;51.112;13.772;2022-12-05T00:00:53;14.75;;;7.40;;
39196;SDS011;42889;51.112;13.772;2022-12-05T00:03:20;13.40;;;6.57;;
39196;SDS011;42889;51.112;13.772;2022-12-05T00:05:47;15.20;;;7.18;;
39196;SDS011;42889;51.112;13.772;2022-12-05T00:08:14;15.45;;;7.35;;
39196;SDS011;42889;51.112;13.772;2022-12-05T00:10:41;15.45;;;7.00;;
39196;SDS011;42889;51.112;13.772;2022-12-05T00:13:08;15.02;;;6.90;;
39196;SDS011;42889;51.112;13.772;2022-12-05T00:15:36;19.58;;;7.75;;
39196;SDS011;42889;51.112;13.772;2022-12-05T00:18:04;14.68;;;6.95;;
39196;SDS011;42889;51.112;13.772;2022-12-05T00:20:31;14.77;;;6.88;;
39196;SDS011;42889;51.112;13.772;2022-12-05T00:22:58;14.20;;;6.97;;
39196;SDS011;42889;51.112;13.772;2022-12-05T00:25:25;16.45;;;7.32;;
39196;SDS011;42889;51.112;13.772;2022-12-05T00:27:52;16.20;;;7.43;;
39196;SDS011;42889;51.112;13.772;2022-12-05T00:30:19;15.95;;;7.30;;
39196;SDS011;42889;51.112;13.772;2022-12-05T00:32:46;18.38;;;7.72;;
39196;SDS011;42889;51.112;13.772;2022-12-05T00:35:12;17.80;;;7.10;;
39196;SDS011;42889;51.112;13.772;2022-12-05T00:37:39;13.80;;;6.40;;
39196;SDS011;42889;51.112;13.772;2022-12-05T00:40:06;14.07;;;6.50;;
39196;SDS011;42889;51.112;13.772;2022-12-05T00:42:33;14.60;;;6.82;;
39196;SDS011;42889;51.112;13.772;2022-12-05T00:44:59;19.85;;;6.95;;
39196;SDS011;42889;51.112;13.772;2022-12-05T00:47:26;16.13;;;7.43;;
39196;SDS011;42889;51.112;13.772;2022-12-05T00:49:53;16.40;;;7.13;;
39196;SDS011;42889;51.112;13.772;2022-12-05T00:52:19;14.35;;;7.13;;
39196;SDS011;42889;51.112;13.772;2022-12-05T00:54:46;13.18;;;6.82;;
39196;SDS011;42889;51.112;13.772;2022-12-05T00:57:12;14.65;;;6.78;;
39196;SDS011;42889;51.112;13.772;2022-12-05T00:59:39;15.80;;;7.30;;
39196;SDS011;42889;51.112;13.772;2022-12-05T01:02:06;17.25;;;7.10;;
39196;SDS011;42889;51.112;13.772;2022-12-05T01:04:32;17.58;;;8.10;;
39196;SDS011;42889;51.112;13.772;2022-12-05T01:06:59;15.27;;;6.90;;
39196;SDS011;42889;51.112;13.772;2022-12-05T01:09:25;18.20;;;8.32;;
39196;SDS011;42889;51.112;13.772;2022-12-05T01:11:52;15.23;;;7.03;;
39196;SDS011;42889;51.112;13.772;2022-12-05T01:14:20;17.70;;;7.43;;
39196;SDS011;42889;51.112;13.772;2022-12-05T01:16:49;14.48;;;6.90;;
39196;SDS011;42889;51.112;13.772;2022-12-05T01:19:21;17.15;;;7.60;;
39196;SDS011;42889;51.112;13.772;2022-12-05T01:21:51;14.73;;;7.40;;
39196;SDS011;42889;51.112;13.772;2022-12-05T01:24:19;15.73;;;7.50;;
39196;SDS011;42889;51.112;13.772;2022-12-05T01:26:47;14.63;;;6.53;;
39196;SDS011;42889;51.112;13.772;2022-12-05T01:29:15;14.75;;;7.65;;
39196;SDS011;42889;51.112;13.772;2022-12-05T01:31:44;15.63;;;7.10;;
39196;SDS011;42889;51.112;13.772;2022-12-05T01:34:11;15.30;;;7.47;;
39196;SDS011;42889;51.112;13.772;2022-12-05T01:36:40;17.00;;;6.97;;
39196;SDS011;42889;51.112;13.772;2022-12-05T01:39:08;15.50;;;7.43;;
39196;SDS011;42889;51.112;13.772;2022-12-05T01:41:37;17.63;;;8.35;;
39196;SDS011;42889;51.112;13.772;2022-12-05T01:44:07;15.95;;;7.47;;
39196;SDS011;42889;51.112;13.772;2022-12-05T01:46:53;15.80;;;7.43;;
39196;SDS011;42889;51.112;13.772;2022-12-05T01:49:25;18.98;;;8.15;;
39196;SDS011;42889;51.112;13.772;2022-12-05T01:52:03;16.25;;;7.55;;
39196;SDS011;42889;51.112;13.772;2022-12-05T01:54:33;18.73;;;8.18;;
39196;SDS011;42889;51.112;13.772;2022-12-05T01:57:03;17.38;;;7.63;;
39196;SDS011;42889;51.112;13.772;2022-12-05T01:59:32;17.00;;;6.97;;
39196;SDS011;42889;51.112;13.772;2022-12-05T02:02:01;15.02;;;6.65;;
39196;SDS011;42889;51.112;13.772;2022-12-05T02:04:28;17.75;;;7.07;;
39196;SDS011;42889;51.112;13.772;2022-12-05T02:06:56;15.25;;;6.88;;
39196;SDS011;42889;51.112;13.772;2022-12-05T02:09:22;17.45;;;7.13;;
39196;SDS011;42889;51.112;13.772;2022-12-05T02:11:50;17.65;;;7.43;;
39196;SDS011;42889;51.112;13.772;2022-12-05T02:17:17;15.27;;;7.68;;
39196;SDS011;42889;51.112;13.772;2022-12-05T02:30:57;13.85;;;6.68;;
39196;SDS011;42889;51.112;13.772;2022-12-05T02:33:40;15.27;;;6.88;;
39196;SDS011;42889;51.112;13.772;2022-12-05T02:41:26;16.95;;;7.22;;
39196;SDS011;42889;51.112;13.772;2022-12-05T02:46:51;16.60;;;7.47;;
39196;SDS011;42889;51.112;13.772;2022-12-05T02:49:21;17.42;;;7.22;;
39196;SDS011;42889;51.112;13.772;2022-12-05T02:51:52;14.02;;;6.18;;
39196;SDS011;42889;51.112;13.772;2022-12-05T02:54:23;15.52;;;7.00;;
39196;SDS011;42889;51.112;13.772;2022-12-05T02:59:20;14.20;;;6.55;;
39196;SDS011;42889;51.112;13.772;2022-12-05T03:01:49;15.00;;;7.20;;
39196;SDS011;42889;51.112;13.772;2022-12-05T03:04:16;13.55;;;7.32;;
39196;SDS011;42889;51.112;13.772;2022-12-05T03:07:07;16.45;;;7.13;;
39196;SDS011;42889;51.112;13.772;2022-12-05T03:09:36;15.73;;;7.18;;
39196;SDS011;42889;51.112;13.772;2022-12-05T03:14:46;13.37;;;5.90;;
39196;SDS011;42889;51.112;13.772;2022-12-05T03:17:36;13.85;;;6.43;;
39196;SDS011;42889;51.112;13.772;2022-12-05T03:20:15;15.00;;;6.75;;
39196;SDS011;42889;51.112;13.772;2022-12-05T03:22:52;11.50;;;5.65;;
39196;SDS011;42889;51.112;13.772;2022-12-05T03:25:28;13.50;;;5.95;;
39196;SDS011;42889;51.112;13.772;2022-12-05T03:28:03;13.82;;;6.30;;
39196;SDS011;42889;51.112;13.772;2022-12-05T03:30:36;13.38;;;6.05;;
39196;SDS011;42889;51.112;13.772;2022-12-05T03:33:09;11.95;;;6.03;;
39196;SDS011;42889;51.112;13.772;2022-12-05T03:38:34;13.80;;;6.28;;
39196;SDS011;42889;51.112;13.772;2022-12-05T03:41:07;15.80;;;6.28;;
39196;SDS011;42889;51.112;13.772;2022-12-05T03:43:44;12.70;;;6.07;;
39196;SDS011;42889;51.112;13.772;2022-12-05T03:46:15;10.38;;;5.05;;
39196;SDS011;42889;51.112;13.772;2022-12-05T03:48:49;11.70;;;5.55;;
39196;SDS011;42889;51.112;13.772;2022-12-05T03:51:27;12.63;;;5.78;;
39196;SDS011;42889;51.112;13.772;2022-12-05T03:54:04;13.65;;;6.13;;
39196;SDS011;42889;51.112;13.772;2022-12-05T03:56:37;14.13;;;6.25;;
39196;SDS011;42889;51.112;13.772;2022-12-05T03:59:13;11.20;;;5.82;;
39196;SDS011;42889;51.112;13.772;2022-12-05T04:01:45;12.70;;;5.60;;
39196;SDS011;42889;51.112;13.772;2022-12-05T04:04:16;11.85;;;5.90;;
39196;SDS011;42889;51.112;13.772;2022-12-05T04:06:50;12.75;;;5.80;;
39196;SDS011;42889;51.112;13.772;2022-12-05T04:12:00;11.98;;;5.82;;
39196;SDS011;42889;51.112;13.772;2022-12-05T04:14:33;14.05;;;5.75;;
39196;SDS011;42889;51.112;13.772;2022-12-05T04:17:05;12.40;;;6.03;;
39196;SDS011;42889;51.112;13.772;2022-12-05T04:22:31;11.32;;;5.28;;
39196;SDS011;42889;51.112;13.772;2022-12-05T04:25:00;11.43;;;5.43;;
39196;SDS011;42889;51.112;13.772;2022-12-05T04:27:55;12.85;;;5.80;;
39196;SDS011;42889;51.112;13.772;2022-12-05T04:30:31;12.82;;;5.95;;
39196;SDS011;42889;51.112;13.772;2022-12-05T04:33:15;12.13;;;6.22;;
39196;SDS011;42889;51.112;13.772;2022-12-05T04:38:29;12.82;;;6.00;;
39196;SDS011;42889;51.112;13.772;2022-12-05T04:41:04;13.65;;;6.10;;
39196;SDS011;42889;51.112;13.772;2022-12-05T04:43:35;12.00;;;5.70;;
39196;SDS011;42889;51.112;13.772;2022-12-05T04:46:05;10.40;;;5.10;;
39196;SDS011;42889;51.112;13.772;2022-12-05T04:48:36;13.00;;;5.40;;
39196;SDS011;42889;51.112;13.772;2022-12-05T04:51:06;11.35;;;5.30;;
39196;SDS011;42889;51.112;13.772;2022-12-05T04:53:35;14.05;;;5.32;;
39196;SDS011;42889;51.112;13.772;2022-12-05T04:56:01;13.77;;;6.05;;
39196;SDS011;42889;51.112;13.772;2022-12-05T04:58:30;11.98;;;5.40;;
39196;SDS011;42889;51.112;13.772;2022-12-05T05:01:11;11.15;;;5.38;;
39196;SDS011;42889;51.112;13.772;2022-12-05T05:06:54;11.13;;;4.90;;
39196;SDS011;42889;51.112;13.772;2022-12-05T05:09:21;10.52;;;5.15;;
39196;SDS011;42889;51.112;13.772;2022-12-05T05:11:48;11.35;;;5.00;;
39196;SDS011;42889;51.112;13.772;2022-12-05T05:14:14;10.02;;;5.00;;
39196;SDS011;42889;51.112;13.772;2022-12-05T05:16:41;11.50;;;4.80;;
39196;SDS011;42889;51.112;13.772;2022-12-05T05:19:09;11.55;;;5.47;;
39196;SDS011;42889;51.112;13.772;2022-12-05T05:21:38;11.02;;;5.18;;
39196;SDS011;42889;51.112;13.772;2022-12-05T05:24:06;11.52;;;4.78;;
39196;SDS011;42889;51.112;13.772;2022-12-05T05:26:36;9.18;;;4.60;;
39196;SDS011;42889;51.112;13.772;2022-12-05T05:29:04;10.60;;;4.87;;
39196;SDS011;42889;51.112;13.772;2022-12-05T05:31:32;9.30;;;4.75;;
39196;SDS011;42889;51.112;13.772;2022-12-05T05:33:59;10.25;;;4.97;;
39196;SDS011;42889;51.112;13.772;2022-12-05T05:36:34;10.40;;;4.72;;
39196;SDS011;42889;51.112;13.772;2022-12-05T05:39:01;11.55;;;4.72;;
39196;SDS011;42889;51.112;13.772;2022-12-05T05:41:31;9.57;;;4.75;;
39196;SDS011;42889;51.112;13.772;2022-12-05T05:43:59;11.73;;;4.60;;
39196;SDS011;42889;51.112;13.772;2022-12-05T05:46:28;9.07;;;4.43;;
39196;SDS011;42889;51.112;13.772;2022-12-05T05:48:57;8.25;;;4.18;;
39196;SDS011;42889;51.112;13.772;2022-12-05T05:51:24;10.55;;;4.63;;
39196;SDS011;42889;51.112;13.772;2022-12-05T05:53:53;9.98;;;4.53;;
39196;SDS011;42889;51.112;13.772;2022-12-05T05:56:21;10.77;;;5.03;;
39196;SDS011;42889;51.112;13.772;2022-12-05T05:58:53;13.32;;;5.05;;
39196;SDS011;42889;51.112;13.772;2022-12-05T06:01:21;9.38;;;4.63;;
39196;SDS011;42889;51.112;13.772;2022-12-05T06:03:48;10.00;;;4.65;;
39196;SDS011;42889;51.112;13.772;2022-12-05T06:06:18;11.60;;;5.30;;
39196;SDS011;42889;51.112;13.772;2022-12-05T06:08:46;11.25;;;5.10;;
39196;SDS011;42889;51.112;13.772;2022-12-05T06:11:14;9.90;;;4.75;;
39196;SDS011;42889;51.112;13.772;2022-12-05T06:13:55;11.23;;;5.20;;
39196;SDS011;42889;51.112;13.772;2022-12-05T06:16:23;12.02;;;5.50;;
39196;SDS011;42889;51.112;13.772;2022-12-05T06:18:50;10.63;;;4.75;;
39196;SDS011;42889;51.112;13.772;2022-12-05T06:21:18;9.13;;;4.97;;
39196;SDS011;42889;51.112;13.772;2022-12-05T06:23:45;10.43;;;5.43;;
39196;SDS011;42889;51.112;13.772;2022-12-05T06:26:13;10.88;;;5.05;;
39196;SDS011;42889;51.112;13.772;2022-12-05T06:28:41;12.05;;;5.28;;
39196;SDS011;42889;51.112;13.772;2022-12-05T06:31:13;12.13;;;5.30;;
39196;SDS011;42889;51.112;13.772;2022-12-05T06:33:42;11.18;;;5.15;;
39196;SDS011;42889;51.112;13.772;2022-12-05T06:36:11;10.75;;;5.05;;
39196;SDS011;42889;51.112;13.772;2022-12-05T06:38:40;11.70;;;5.50;;
39196;SDS011;42889;51.112;13.772;2022-12-05T06:41:09;12.65;;;5.75;;
39196;SDS011;42889;51.112;13.772;2022-12-05T06:46:05;12.50;;;5.93;;
39196;SDS011;42889;51.112;13.772;2022-12-05T06:48:33;11.70;;;5.63;;
39196;SDS011;42889;51.112;13.772;2022-12-05T06:51:00;12.38;;;5.75;;
39196;SDS011;42889;51.112;13.772;2022-12-05T06:53:27;13.18;;;5.68;;
39196;SDS011;42889;51.112;13.772;2022-12-05T06:55:58;11.75;;;5.60;;
39196;SDS011;42889;51.112;13.772;2022-12-05T06:58:27;12.25;;;5.20;;
39196;SDS011;42889;51.112;13.772;2022-12-05T07:00:54;11.48;;;5.55;;
39196;SDS011;42889;51.112;13.772;2022-12-05T07:03:39;11.32;;;5.07;;
39196;SDS011;42889;51.112;13.772;2022-12-05T07:06:06;11.80;;;5.65;;
39196;SDS011;42889;51.112;13.772;2022-12-05T07:08:33;10.65;;;4.80;;
39196;SDS011;42889;51.112;13.772;2022-12-05T07:11:01;12.27;;;5.97;;
39196;SDS011;42889;51.112;13.772;2022-12-05T07:13:28;10.00;;;4.82;;
39196;SDS011;42889;51.112;13.772;2022-12-05T07:15:55;11.48;;;5.25;;
39196;SDS011;42889;51.112;13.772;2022-12-05T07:18:24;10.50;;;4.80;;
39196;SDS011;42889;51.112;13.772;2022-12-05T07:20:55;11.57;;;5.28;;
39196;SDS011;42889;51.112;13.772;2022-12-05T07:23:40;12.00;;;5.28;;
39196;SDS011;42889;51.112;13.772;2022-12-05T07:26:08;12.63;;;5.95;;
39196;SDS011;42889;51.112;13.772;2022-12-05T07:28:36;13.25;;;5.57;;
39196;SDS011;42889;51.112;13.772;2022-12-05T07:31:04;11.75;;;4.97;;
39196;SDS011;42889;51.112;13.772;2022-12-05T07:33:35;10.52;;;4.80;;
39196;SDS011;42889;51.112;13.772;2022-12-05T07:36:11;11.18;;;5.68;;
39196;SDS011;42889;51.112;13.772;2022-12-05T07:38:40;12.40;;;5.68;;
39196;SDS011;42889;51.112;13.772;2022-12-05T07:41:09;10.05;;;4.85;;
39196;SDS011;42889;51.112;13.772;2022-12-05T07:43:42;11.35;;;5.00;;
39196;SDS011;42889;51.112;13.772;2022-12-05T07:46:08;10.43;;;4.90;;
39196;SDS011;42889;51.112;13.772;2022-12-05T07:48:37;12.38;;;5.35;;
39196;SDS011;42889;51.112;13.772;2022-12-05T07:51:06;10.68;;;5.07;;
39196;SDS011;42889;51.112;13.772;2022-12-05T07:53:34;11.15;;;4.80;;
39196;SDS011;42889;51.112;13.772;2022-12-05T07:56:02;10.40;;;4.53;;
39196;SDS011;42889;51.112;13.772;2022-12-05T07:58:32;10.52;;;5.20;;
39196;SDS011;42889;51.112;13.772;2022-12-05T08:01:06;12.02;;;4.93;;
39196;SDS011;42889;51.112;13.772;2022-12-05T08:03:35;13.00;;;5.55;;
39196;SDS011;42889;51.112;13.772;2022-12-05T08:06:04;15.77;;;5.78;;
39196;SDS011;42889;51.112;13.772;2022-12-05T08:08:33;11.25;;;5.50;;
39196;SDS011;42889;51.112;13.772;2022-12-05T08:11:07;12.75;;;5.03;;
39196;SDS011;42889;51.112;13.772;2022-12-05T08:13:39;13.20;;;5.57;;
39196;SDS011;42889;51.112;13.772;2022-12-05T08:16:08;11.48;;;5.32;;
39196;SDS011;42889;51.112;13.772;2022-12-05T08:18:36;13.18;;;5.57;;
39196;SDS011;42889;51.112;13.772;2022-12-05T08:21:05;12.57;;;5.38;;
39196;SDS011;42889;51.112;13.772;2022-12-05T08:23:33;11.80;;;5.20;;
39196;SDS011;42889;51.112;13.772;2022-12-05T08:26:02;10.18;;;4.93;;
39196;SDS011;42889;51.112;13.772;2022-12-05T08:28:36;16.48;;;6.07;;
39196;SDS011;42889;51.112;13.772;2022-12-05T08:31:08;15.20;;;6.50;;
39196;SDS011;42889;51.112;13.772;2022-12-05T08:33:40;14.73;;;6.43;;
39196;SDS011;42889;51.112;13.772;2022-12-05T08:36:09;14.43;;;6.32;;
39196;SDS011;42889;51.112;13.772;2022-12-05T08:38:38;12.63;;;6.20;;
39196;SDS011;42889;51.112;13.772;2022-12-05T08:41:06;12.00;;;6.25;;
39196;SDS011;42889;51.112;13.772;2022-12-05T08:43:34;11.07;;;5.25;;
39196;SDS011;42889;51.112;13.772;2022-12-05T08:46:01;12.27;;;5.28;;
39196;SDS011;42889;51.112;13.772;2022-12-05T08:48:29;17.13;;;6.50;;
39196;SDS011;42889;51.112;13.772;2022-12-05T08:50:58;20.10;;;7.88;;
39196;SDS011;42889;51.112;13.772;2022-12-05T08:53:29;14.38;;;6.28;;
39196;SDS011;42889;51.112;13.772;2022-12-05T08:55:59;14.93;;;6.55;;
39196;SDS011;42889;51.112;13.772;2022-12-05T08:58:27;13.18;;;6.30;;
39196;SDS011;42889;51.112;13.772;2022-12-05T09:00:54;17.45;;;7.60;;
39196;SDS011;42889;51.112;13.772;2022-12-05T09:03:21;18.95;;;8.25;;
39196;SDS011;42889;51.112;13.772;2022-12-05T09:05:47;21.00;;;9.57;;
39196;SDS011;42889;51.112;13.772;2022-12-05T09:08:20;22.20;;;9.52;;
39196;SDS011;42889;51.112;13.772;2022-12-05T09:10:46;24.15;;;10.43;;
39196;SDS011;42889;51.112;13.772;2022-12-05T09:13:13;18.90;;;8.38;;
39196;SDS011;42889;51.112;13.772;2022-12-05T09:15:39;18.48;;;8.10;;
39196;SDS011;42889;51.112;13.772;2022-12-05T09:18:06;16.88;;;7.28;;
39196;SDS011;42889;51.112;13.772;2022-12-05T09:20:33;17.08;;;7.63;;
39196;SDS011;42889;51.112;13.772;2022-12-05T09:22:59;16.67;;;7.45;;
39196;SDS011;42889;51.112;13.772;2022-12-05T09:25:26;18.73;;;7.80;;
39196;SDS011;42889;51.112;13.772;2022-12-05T09:27:53;16.23;;;7.50;;
39196;SDS011;42889;51.112;13.772;2022-12-05T09:30:20;16.23;;;7.43;;
39196;SDS011;42889;51.112;13.772;2022-12-05T09:32:46;17.33;;;7.60;;
39196;SDS011;42889;51.112;13.772;2022-12-05T09:35:13;15.52;;;7.65;;
39196;SDS011;42889;51.112;13.772;2022-12-05T09:37:40;14.82;;;7.30;;
39196;SDS011;42889;51.112;13.772;2022-12-05T09:40:13;14.73;;;7.10;;
39196;SDS011;42889;51.112;13.772;2022-12-05T09:48:00;14.95;;;6.70;;
39196;SDS011;42889;51.112;13.772;2022-12-05T09:53:41;15.77;;;7.47;;
39196;SDS011;42889;51.112;13.772;2022-12-05T09:58:42;15.20;;;6.75;;
39196;SDS011;42889;51.112;13.772;2022-12-05T10:06:23;16.58;;;7.47;;
39196;SDS011;42889;51.112;13.772;2022-12-05T10:17:46;18.08;;;8.48;;
39196;SDS011;42889;51.112;13.772;2022-12-05T10:20:19;16.20;;;7.78;;
39196;SDS011;42889;51.112;13.772;2022-12-05T10:22:57;18.33;;;7.97;;
39196;SDS011;42889;51.112;13.772;2022-12-05T10:25:31;20.05;;;8.77;;
39196;SDS011;42889;51.112;13.772;2022-12-05T10:28:00;21.90;;;8.50;;
39196;SDS011;42889;51.112;13.772;2022-12-05T10:30:35;20.70;;;9.07;;
39196;SDS011;42889;51.112;13.772;2022-12-05T10:33:03;18.60;;;8.75;;
39196;SDS011;42889;51.112;13.772;2022-12-05T10:35:39;23.63;;;9.45;;
39196;SDS011;42889;51.112;13.772;2022-12-05T10:38:19;21.63;;;9.23;;
39196;SDS011;42889;51.112;13.772;2022-12-05T10:40:54;22.80;;;10.18;;
39196;SDS011;42889;51.112;13.772;2022-12-05T10:43:25;23.00;;;10.20;;
39196;SDS011;42889;51.112;13.772;2022-12-05T10:45:55;25.02;;;10.40;;
39196;SDS011;42889;51.112;13.772;2022-12-05T10:48:22;23.40;;;10.60;;
39196;SDS011;42889;51.112;13.772;2022-12-05T10:50:51;23.27;;;10.65;;
39196;SDS011;42889;51.112;13.772;2022-12-05T10:53:22;24.23;;;10.75;;
39196;SDS011;42889;51.112;13.772;2022-12-05T10:55:51;20.63;;;9.55;;
39196;SDS011;42889;51.112;13.772;2022-12-05T10:58:38;26.10;;;10.15;;
39196;SDS011;42889;51.112;13.772;2022-12-05T11:01:21;21.15;;;9.82;;
39196;SDS011;42889;51.112;13.772;2022-12-05T11:03:54;22.92;;;10.02;;
39196;SDS011;42889;51.112;13.772;2022-12-05T11:06:27;23.65;;;11.23;;
39196;SDS011;42889;51.112;13.772;2022-12-05T11:08:58;22.75;;;9.98;;
39196;SDS011;42889;51.112;13.772;2022-12-05T11:11:31;18.23;;;8.75;;
39196;SDS011;42889;51.112;13.772;2022-12-05T11:14:21;18.48;;;7.95;;
39196;SDS011;42889;51.112;13.772;2022-12-05T11:16:54;14.63;;;6.82;;
39196;SDS011;42889;51.112;13.772;2022-12-05T11:22:01;18.38;;;5.88;;
39196;SDS011;42889;51.112;13.772;2022-12-05T11:24:30;15.50;;;6.07;;
39196;SDS011;42889;51.112;13.772;2022-12-05T11:27:23;13.63;;;5.82;;
39196;SDS011;42889;51.112;13.772;2022-12-05T11:29:58;13.75;;;5.28;;
39196;SDS011;42889;51.112;13.772;2022-12-05T11:32:29;15.93;;;6.45;;
39196;SDS011;42889;51.112;13.772;2022-12-05T11:35:10;13.95;;;6.28;;
39196;SDS011;42889;51.112;13.772;2022-12-05T11:40:33;13.07;;;5.40;;
39196;SDS011;42889;51.112;13.772;2022-12-05T12:14:28;10.93;;;4.68;;
39196;SDS011;42889;51.112;13.772;2022-12-05T12:22:40;13.40;;;5.60;;
39196;SDS011;42889;51.112;13.772;2022-12-05T12:36:31;13.00;;;4.85;;
39196;SDS011;42889;51.112;13.772;2022-12-05T12:39:17;13.25;;;6.13;;
39196;SDS011;42889;51.112;13.772;2022-12-05T12:48:00;12.25;;;5.93;;
39196;SDS011;42889;51.112;13.772;2022-12-05T12:50:43;11.40;;;5.05;;
39196;SDS011;42889;51.112;13.772;2022-12-05T12:53:25;11.60;;;5.13;;
39196;SDS011;42889;51.112;13.772;2022-12-05T13:01:45;10.70;;;4.90;;
39196;SDS011;42889;51.112;13.772;2022-12-05T13:04:20;12.80;;;5.72;;
39196;SDS011;42889;51.112;13.772;2022-12-05T13:06:51;12.95;;;5.20;;
39196;SDS011;42889;51.112;13.772;2022-12-05T13:09:34;12.75;;;5.80;;
39196;SDS011;42889;51.112;13.772;2022-12-05T13:12:08;11.63;;;5.38;;
39196;SDS011;42889;51.112;13.772;2022-12-05T13:14:38;13.07;;;5.78;;
39196;SDS011;42889;51.112;13.772;2022-12-05T13:17:22;12.38;;;5.20;;
39196;SDS011;42889;51.112;13.772;2022-12-05T13:19:52;10.60;;;4.57;;
39196;SDS011;42889;51.112;13.772;2022-12-05T13:22:20;12.15;;;5.07;;
39196;SDS011;42889;51.112;13.772;2022-12-05T13:24:49;10.85;;;4.50;;
39196;SDS011;42889;51.112;13.772;2022-12-05T13:27:26;10.95;;;4.90;;
39196;SDS011;42889;51.112;13.772;2022-12-05T13:32:24;11.93;;;5.38;;
39196;SDS011;42889;51.112;13.772;2022-12-05T13:34:50;10.68;;;5.20;;
39196;SDS011;42889;51.112;13.772;2022-12-05T13:37:28;10.07;;;4.38;;
39196;SDS011;42889;51.112;13.772;2022-12-05T13:43:11;9.68;;;4.72;;
39196;SDS011;42889;51.112;13.772;2022-12-05T13:45:41;11.43;;;4.60;;
39196;SDS011;42889;51.112;13.772;2022-12-05T13:48:23;10.32;;;4.68;;
39196;SDS011;42889;51.112;13.772;2022-12-05T13:50:56;10.43;;;4.53;;
39196;SDS011;42889;51.112;13.772;2022-12-05T13:53:42;10.00;;;4.72;;
39196;SDS011;42889;51.112;13.772;2022-12-05T14:01:43;11.70;;;4.63;;
39196;SDS011;42889;51.112;13.772;2022-12-05T14:04:42;10.32;;;4.40;;
39196;SDS011;42889;51.112;13.772;2022-12-05T14:07:35;8.15;;;3.88;;
39196;SDS011;42889;51.112;13.772;2022-12-05T14:20:46;7.32;;;3.45;;
39196;SDS011;42889;51.112;13.772;2022-12-05T14:34:23;9.77;;;4.07;;
39196;SDS011;42889;51.112;13.772;2022-12-05T14:39:29;8.98;;;4.13;;
39196;SDS011;42889;51.112;13.772;2022-12-05T14:41:58;9.73;;;4.05;;
39196;SDS011;42889;51.112;13.772;2022-12-05T14:44:26;9.77;;;4.37;;
39196;SDS011;42889;51.112;13.772;2022-12-05T14:52:17;9.38;;;5.10;;
39196;SDS011;42889;51.112;13.772;2022-12-05T14:54:48;9.60;;;4.50;;
39196;SDS011;42889;51.112;13.772;2022-12-05T14:57:18;10.70;;;4.63;;
39196;SDS011;42889;51.112;13.772;2022-12-05T14:59:48;9.55;;;4.93;;
39196;SDS011;42889;51.112;13.772;2022-12-05T15:02:25;10.95;;;5.32;;
39196;SDS011;42889;51.112;13.772;2022-12-05T15:05:02;11.20;;;4.90;;
39196;SDS011;42889;51.112;13.772;2022-12-05T15:07:49;11.25;;;4.78;;
39196;SDS011;42889;51.112;13.772;2022-12-05T15:10:22;9.98;;;5.00;;
39196;SDS011;42889;51.112;13.772;2022-12-05T15:12:56;11.02;;;4.70;;
39196;SDS011;42889;51.112;13.772;2022-12-05T15:20:51;14.88;;;5.60;;
39196;SDS011;42889;51.112;13.772;2022-12-05T15:23:39;12.18;;;5.22;;
39196;SDS011;42889;51.112;13.772;2022-12-05T15:29:11;12.30;;;5.78;;
39196;SDS011;42889;51.112;13.772;2022-12-05T15:47:41;12.00;;;5.75;;
39196;SDS011;42889;51.112;13.772;2022-12-05T15:50:12;13.18;;;6.50;;
39196;SDS011;42889;51.112;13.772;2022-12-05T15:52:48;11.80;;;5.63;;
39196;SDS011;42889;51.112;13.772;2022-12-05T15:55:31;13.43;;;5.85;;
39196;SDS011;42889;51.112;13.772;2022-12-05T16:00:39;12.90;;;7.05;;
39196;SDS011;42889;51.112;13.772;2022-12-05T16:03:12;14.05;;;6.20;;
39196;SDS011;42889;51.112;13.772;2022-12-05T16:05:48;14.50;;;6.70;;
39196;SDS011;42889;51.112;13.772;2022-12-05T16:08:19;13.85;;;6.57;;
39196;SDS011;42889;51.112;13.772;2022-12-05T16:10:49;13.70;;;6.47;;
39196;SDS011;42889;51.112;13.772;2022-12-05T16:13:18;13.85;;;6.65;;
39196;SDS011;42889;51.112;13.772;2022-12-05T16:15:49;13.88;;;6.53;;
39196;SDS011;42889;51.112;13.772;2022-12-05T16:18:23;15.15;;;6.70;;
39196;SDS011;42889;51.112;13.772;2022-12-05T16:20:51;13.52;;;6.30;;
39196;SDS011;42889;51.112;13.772;2022-12-05T16:23:25;13.60;;;6.40;;
39196;SDS011;42889;51.112;13.772;2022-12-05T16:26:08;14.18;;;6.95;;
39196;SDS011;42889;51.112;13.772;2022-12-05T16:28:54;13.50;;;6.07;;
39196;SDS011;42889;51.112;13.772;2022-12-05T16:31:22;16.05;;;6.28;;
39196;SDS011;42889;51.112;13.772;2022-12-05T16:33:58;15.45;;;6.28;;
39196;SDS011;42889;51.112;13.772;2022-12-05T16:39:14;15.52;;;6.65;;
39196;SDS011;42889;51.112;13.772;2022-12-05T16:41:45;18.33;;;7.43;;
39196;SDS011;42889;51.112;13.772;2022-12-05T16:47:18;15.73;;;7.72;;
39196;SDS011;42889;51.112;13.772;2022-12-05T16:49:52;14.93;;;7.18;;
39196;SDS011;42889;51.112;13.772;2022-12-05T16:52:18;12.57;;;6.40;;
39196;SDS011;42889;51.112;13.772;2022-12-05T16:54:45;13.98;;;6.55;;
39196;SDS011;42889;51.112;13.772;2022-12-05T16:57:14;9.50;;;5.10;;
39196;SDS011;42889;51.112;13.772;2022-12-05T16:59:41;12.65;;;5.00;;
39196;SDS011;42889;51.112;13.772;2022-12-05T17:02:10;10.43;;;5.00;;
39196;SDS011;42889;51.112;13.772;2022-12-05T17:07:06;12.43;;;5.25;;
39196;SDS011;42889;51.112;13.772;2022-12-05T17:09:33;8.80;;;4.55;;
39196;SDS011;42889;51.112;13.772;2022-12-05T17:12:01;11.23;;;4.90;;
39196;SDS011;42889;51.112;13.772;2022-12-05T17:14:32;11.32;;;5.25;;
39196;SDS011;42889;51.112;13.772;2022-12-05T17:16:59;10.15;;;5.22;;
39196;SDS011;42889;51.112;13.772;2022-12-05T17:19:28;13.02;;;6.40;;
39196;SDS011;42889;51.112;13.772;2022-12-05T17:21:55;11.70;;;5.68;;
39196;SDS011;42889;51.112;13.772;2022-12-05T17:24:22;13.07;;;6.10;;
39196;SDS011;42889;51.112;13.772;2022-12-05T17:26:49;9.63;;;4.70;;
39196;SDS011;42889;51.112;13.772;2022-12-05T17:29:16;11.85;;;5.90;;
39196;SDS011;42889;51.112;13.772;2022-12-05T17:31:43;11.55;;;5.38;;
39196;SDS011;42889;51.112;13.772;2022-12-05T17:34:14;12.15;;;6.03;;
39196;SDS011;42889;51.112;13.772;2022-12-05T17:36:43;10.43;;;5.15;;
39196;SDS011;42889;51.112;13.772;2022-12-05T17:39:10;13.00;;;6.00;;
39196;SDS011;42889;51.112;13.772;2022-12-05T17:41:37;11.13;;;5.53;;
39196;SDS011;42889;51.112;13.772;2022-12-05T17:44:04;11.73;;;5.50;;
39196;SDS011;42889;51.112;13.772;2022-12-05T17:46:31;12.10;;;5.38;;
39196;SDS011;42889;51.112;13.772;2022-12-05T17:48:58;12.05;;;5.60;;
39196;SDS011;42889;51.112;13.772;2022-12-05T17:51:25;12.23;;;5.68;;
39196;SDS011;42889;51.112;13.772;2022-12-05T17:53:52;12.63;;;5.70;;
39196;SDS011;42889;51.112;13.772;2022-12-05T17:56:19;13.55;;;5.30;;
39196;SDS011;42889;51.112;13.772;2022-12-05T17:58:46;11.10;;;5.07;;
39196;SDS011;42889;51.112;13.772;2022-12-05T18:01:14;11.63;;;5.45;;
39196;SDS011;42889;51.112;13.772;2022-12-05T18:03:45;11.73;;;5.18;;
39196;SDS011;42889;51.112;13.772;2022-12-05T18:06:12;10.80;;;5.15;;
39196;SDS011;42889;51.112;13.772;2022-12-05T18:08:40;11.27;;;5.22;;
39196;SDS011;42889;51.112;13.772;2022-12-05T18:13:40;12.65;;;4.85;;
39196;SDS011;42889;51.112;13.772;2022-12-05T18:16:07;11.90;;;5.18;;